Data for 05/05/2006

Time Sea-Level Adjusted Pressure Absolute Pressure Temperature Relative Humidity Dew Point   
(mb) (inHg) (mb) (inHg) (C) (F) (%) (C) (F)
00:05 1021 30.15 850 25.1 3.5 38.2 56 -4.4 24.1
00:10 1021 30.15 850 25.1 3.7 38.6 56 -4.4 24.1
00:15 1020 30.12 850 25.1 3.6 38.6 56 -4.4 24.2
00:20 1021 30.15 850 25.1 3.6 38.5 56 -4.3 24.3
00:25 1021 30.15 850 25.1 3.5 38.3 56 -4.4 24.1
00:30 1021 30.15 850 25.1 3.5 38.3 56 -4.4 24.1
00:35 1021 30.15 850 25.1 3.5 38.3 57 -4.3 24.3
00:40 1021 30.15 850 25.1 3.4 38.1 57 -4.4 24.2
00:45 1020 30.12 850 25.1 3.4 38.1 57 -4.4 24.1
00:50 1020 30.12 850 25.1 3.4 38.1 57 -4.4 24.1
00:55 1020 30.12 850 25.1 3.5 38.3 56 -4.4 24.1
01:00 1020 30.12 850 25.1 3.4 38.2 57 -4.3 24.2
01:05 1020 30.12 850 25.1 3 37.5 59 -4.2 24.4
01:10 1020 30.12 850 25.1 2.7 36.9 60 -4.2 24.4
01:15 1020 30.12 850 25.1 2.5 36.5 61 -4.3 24.3
01:20 1020 30.12 850 25.1 2.4 36.4 61 -4.3 24.3
01:25 1020 30.12 850 25.1 2.4 36.3 61 -4.3 24.3
01:30 1020 30.12 850 25.1 2.2 36 62 -4.2 24.4
01:35 1021 30.15 850 25.1 2 35.6 63 -4.3 24.3
01:40 1020 30.12 850 25.1 1.9 35.5 64 -4.1 24.6
01:45 1020 30.12 850 25.1 1.7 35 65 -4.2 24.4
01:50 1020 30.12 850 25.1 1.5 34.7 66 -4.3 24.3
01:55 1020 30.12 850 25.1 1.3 34.4 66 -4.4 24.2
02:00 1020 30.12 850 25.1 1.3 34.4 66 -4.2 24.4
02:05 1020 30.12 849 25.07 1.2 34.2 67 -4.2 24.4
02:10 1020 30.12 849 25.07 1.1 34 68 -4.2 24.5
02:15 1020 30.12 849 25.07 1.1 34 67 -4.3 24.2
02:20 1020 30.12 849 25.07 0.9 33.6 68 -4.3 24.3
02:25 1020 30.12 849 25.07 0.7 33.2 68 -4.7 23.6
02:30 1020 30.12 849 25.07 0.9 33.6 65 -4.9 23.2
02:35 1020 30.12 849 25.07 1.5 34.6 63 -4.8 23.3
02:40 1020 30.12 849 25.07 1.7 35 63 -4.6 23.7
02:45 1020 30.12 849 25.07 1.8 35.2 62 -4.7 23.5
02:50 1020 30.12 849 25.07 1.9 35.4 61 -4.9 23.2
02:55 1020 30.12 849 25.07 1.7 35.1 62 -4.7 23.5
03:00 1020 30.12 849 25.07 1.7 35 63 -4.6 23.8
03:05 1020 30.12 849 25.07 1.5 34.7 64 -4.5 23.8
03:10 1020 30.12 849 25.07 1.2 34.2 65 -4.5 23.8
03:15 1020 30.12 849 25.07 1.2 34.1 64 -4.8 23.4
03:20 1020 30.12 849 25.07 1.2 34.2 65 -4.7 23.5
03:25 1020 30.12 849 25.07 1.1 34.1 64 -4.9 23.1
03:30 1020 30.12 849 25.07 1.1 34 64 -4.9 23.1
03:35 1020 30.12 849 25.07 1.1 34 64 -4.9 23.2
03:40 1020 30.12 849 25.07 1 33.8 65 -4.9 23.3
03:45 1020 30.12 849 25.07 0.9 33.6 66 -4.8 23.4
03:50 1020 30.12 849 25.07 1 33.7 65 -4.8 23.4
03:55 1020 30.12 849 25.07 1.1 33.9 65 -4.7 23.6
04:00 1020 30.12 849 25.07 1 33.9 65 -4.9 23.2
04:05 1020 30.12 849 25.07 0.7 33.3 66 -5 23
04:10 1020 30.12 849 25.07 0.5 32.9 66 -5.2 22.7
04:15 1020 30.12 849 25.07 0.6 33 65 -5.3 22.5
04:20 1020 30.12 849 25.07 0.6 33.2 64 -5.3 22.4
04:25 1020 30.12 849 25.07 0.6 33 64 -5.4 22.3
04:30 1020 30.12 849 25.07 0.5 33 65 -5.4 22.4
04:35 1020 30.12 849 25.07 0.5 33 65 -5.4 22.3
04:40 1020 30.12 849 25.07 0.5 32.9 65 -5.4 22.3
04:45 1020 30.12 849 25.07 0.4 32.6 65 -5.4 22.2
04:50 1020 30.12 849 25.07 0.4 32.7 66 -5.3 22.4
04:55 1020 30.12 849 25.07 0.5 32.8 66 -5.2 22.7
05:00 1020 30.12 849 25.07 0.5 32.9 66 -5.1 22.8
05:05 1020 30.12 849 25.07 0.5 32.9 66 -5.2 22.7
05:10 1020 30.12 849 25.07 0.3 32.5 66 -5.3 22.5
05:15 1020 30.12 849 25.07 0.2 32.4 67 -5.3 22.5
05:20 1020 30.12 849 25.07 0.3 32.5 66 -5.4 22.3
05:25 1020 30.12 849 25.07 0.3 32.5 66 -5.4 22.3
05:30 1020 30.12 849 25.07 0.3 32.5 66 -5.4 22.2
05:35 1020 30.12 849 25.07 0.4 32.7 65 -5.4 22.2
05:40 1020 30.12 849 25.07 0.3 32.6 65 -5.5 22.1
05:45 1020 30.12 849 25.07 0.3 32.6 65 -5.6 22
05:50 1020 30.12 849 25.07 0.4 32.7 64 -5.7 21.8
05:55 1019 30.09 849 25.07 0.4 32.7 64 -5.8 21.6
06:00 1020 30.12 849 25.07 0.3 32.6 64 -5.6 21.9
06:05 1020 30.12 849 25.07 0.4 32.7 64 -5.6 21.9
06:10 1019 30.09 849 25.07 0.5 32.9 64 -5.5 22.1
06:15 1019 30.09 849 25.07 0.3 32.6 64 -5.7 21.8
06:20 1019 30.09 849 25.07 0.2 32.3 64 -5.9 21.4
06:25 1019 30.09 849 25.07 0.2 32.4 63 -6.1 21.1
06:30 1019 30.09 849 25.07 0.4 32.7 62 -6.1 21.1
06:35 1019 30.09 849 25.07 0.6 33.1 62 -5.9 21.3
06:40 1019 30.09 849 25.07 0.9 33.6 61 -5.9 21.4
06:45 1019 30.09 849 25.07 0.7 33.2 60 -6.1 21
06:50 1020 30.12 849 25.07 0.6 33 60 -6.2 20.8
06:55 1020 30.12 849 25.07 1 33.8 59 -6.2 20.9
07:00 1020 30.12 849 25.07 1.3 34.3 58 -6.1 21.1
07:05 1020 30.12 849 25.07 1.5 34.7 58 -5.9 21.3
07:10 1020 30.12 849 25.07 1.5 34.7 59 -5.6 21.9
07:15 1020 30.12 849 25.07 1.4 34.5 60 -5.6 22
07:20 1020 30.12 849 25.07 1.5 34.8 60 -5.5 22.1
07:25 1020 30.12 849 25.07 1.9 35.4 58 -5.4 22.3
07:30 1020 30.12 849 25.07 2.3 36.1 57 -5.5 22.2
07:35 1020 30.12 849 25.07 2.7 36.9 56 -5.2 22.6
07:40 1020 30.12 849 25.07 3.2 37.8 54 -5.1 22.8
07:45 1020 30.12 849 25.07 3.8 38.8 53 -5 23
07:50 1020 30.12 849 25.07 3.7 38.7 53 -4.9 23.1
07:55 1020 30.12 849 25.07 3.8 38.9 53 -4.8 23.3
08:00 1020 30.12 849 25.07 4.1 39.4 52 -4.8 23.4
08:05 1020 30.12 849 25.07 4.4 40 52 -4.5 23.9
08:10 1020 30.12 849 25.07 4.8 40.7 51 -4.4 24
08:15 1020 30.12 849 25.07 5.2 41.3 50 -4.3 24.3
08:20 1020 30.12 849 25.07 5.2 41.4 51 -4.2 24.4
08:25 1020 30.12 849 25.07 5.5 41.9 49 -4.3 24.3
08:30 1020 30.12 849 25.07 5.8 42.5 48 -4.3 24.3
08:35 1020 30.12 849 25.07 6.2 43.1 46 -4.6 23.6
08:40 1020 30.12 849 25.07 6.9 44.4 42 -5 22.9
08:45 1020 30.12 849 25.07 7.5 45.6 40 -5.3 22.5
08:50 1020 30.12 849 25.07 8 46.5 39 -5.1 22.9
08:55 1020 30.12 849 25.07 7.4 45.4 41 -4.8 23.3
09:00 1020 30.12 849 25.07 6.6 44 42 -5.3 22.5
09:05 1020 30.12 849 25.07 6.9 44.4 43 -5 23
09:10 1020 30.12 849 25.07 6.8 44.3 42 -5.1 22.8
09:15 1020 30.12 849 25.07 7.4 45.4 41 -5 23.1
09:20 1020 30.12 849 25.07 8.1 46.7 39 -5 23
09:25 1020 30.12 849 25.07 8.5 47.2 40 -4.4 24
09:30 1020 30.12 849 25.07 8.7 47.6 37 -5 22.9
09:35 1019 30.09 849 25.07 8.7 47.7 37 -5.1 22.7
09:40 1019 30.09 849 25.07 9.1 48.3 37 -4.8 23.4
09:45 1019 30.09 849 25.07 9 48.1 38 -4.6 23.8
09:50 1019 30.09 849 25.07 9.2 48.5 37 -4.8 23.4
09:55 1019 30.09 849 25.07 8.7 47.6 39 -4.5 23.9
10:00 1019 30.09 848 25.04 8.5 47.4 37 -5.2 22.7
10:05 1019 30.09 848 25.04 9.5 49.2 35 -5.1 22.7
10:10 1019 30.09 848 25.04 10.2 50.4 34 -5 23.1
10:15 1019 30.09 848 25.04 10.5 50.8 34 -4.7 23.6
10:20 1019 30.09 848 25.04 10.6 51.1 33 -4.9 23.2
10:25 1019 30.09 848 25.04 11 51.9 33 -4.5 24
10:30 1019 30.09 848 25.04 11.4 52.4 33 -4.2 24.5
10:35 1019 30.09 848 25.04 11.7 53 33 -4.1 24.6
10:40 1019 30.09 848 25.04 11.6 52.9 32 -4.3 24.2
10:45 1019 30.09 848 25.04 11.6 52.9 33 -4.1 24.7
10:50 1019 30.09 848 25.04 11.2 52.2 33 -4.5 23.8
10:55 1019 30.09 848 25.04 11 51.8 33 -4.6 23.7
11:00 1019 30.09 848 25.04 11.8 53.3 33 -4 24.9
11:05 1019 30.09 848 25.04 12.3 54.2 32 -4 24.8
11:10 1019 30.09 848 25.04 12.4 54.3 32 -3.7 25.4
11:15 1019 30.09 848 25.04 11.5 52.7 33 -4 24.7
11:20 1019 30.09 848 25.04 11.7 53.1 32 -4.4 24
11:25 1019 30.09 848 25.04 11.4 52.5 34 -3.7 25.4
11:30 1019 30.09 848 25.04 11.7 53.1 31 -4.6 23.6
11:35 1019 30.09 848 25.04 12.7 54.8 29 -4.8 23.3
11:40 1019 30.09 848 25.04 12.6 54.6 31 -4.3 24.3
11:45 1019 30.09 848 25.04 13.1 55.6 27 -5.3 22.4
11:50 1019 30.09 848 25.04 13.4 56.2 30 -3.9 25
11:55 1019 30.09 848 25.04 13.9 56.9 26 -5.2 22.7
12:00 1019 30.09 848 25.04 13.9 57 27 -4.6 23.8
12:05 1019 30.09 848 25.04 13.8 56.9 25 -5.8 21.5
12:10 1018 30.06 848 25.04 13.5 56.3 26 -5.3 22.4
12:15 1018 30.06 848 25.04 14.2 57.5 27 -4.4 24.1
12:20 1018 30.06 847 25.01 14.3 57.8 26 -5 23.1
12:25 1018 30.06 847 25.01 14.6 58.3 22 -6.5 20.3
12:30 1018 30.06 847 25.01 14.6 58.2 23 -6.4 20.4
12:35 1018 30.06 847 25.01 14.2 57.6 24 -5.8 21.6
12:40 1018 30.06 847 25.01 14.1 57.3 24 -6.2 20.9
12:45 1018 30.06 847 25.01 14.2 57.6 24 -5.8 21.5
12:50 1018 30.06 847 25.01 15.1 59.1 22 -6.5 20.2
12:55 1018 30.06 847 25.01 15.3 59.6 21 -6.6 20
13:00 1018 30.06 847 25.01 15.5 60 22 -6.3 20.7
13:05 1018 30.06 847 25.01 15.9 60.7 22 -6 21.2
13:10 1018 30.06 847 25.01 15 59 24 -5.3 22.4
13:15 1018 30.06 847 25.01 15.2 59.4 21 -7.2 19
13:20 1018 30.06 847 25.01 15.9 60.6 20 -7 19.3
13:25 1018 30.06 847 25.01 15.6 60.1 19 -7.8 18
13:30 1018 30.06 847 25.01 15.3 59.6 19 -7.8 18
13:35 1017 30.03 847 25.01 15.4 59.6 18 -8.9 16
13:40 1017 30.03 847 25.01 15.4 59.8 18 -8.9 16
13:45 1017 30.03 847 25.01 15.8 60.4 18 -8.6 16.4
13:50 1017 30.03 846 24.98 16 60.7 20 -6.9 19.6
13:55 1017 30.03 846 24.98 16.2 61.2 16 -9.4 15.2
14:00 1017 30.03 846 24.98 16.5 61.8 16 -9.7 14.5
14:05 1017 30.03 846 24.98 16.4 61.6 18 -7.8 18
14:10 1017 30.03 846 24.98 15.4 59.8 18 -8.8 16.1
14:15 1017 30.03 846 24.98 16.3 61.3 15 -10.3 13.4
14:20 1017 30.03 846 24.98 16.8 62.3 11 -13.8 7.2
14:25 1017 30.03 846 24.98 17.3 63.1 13 -11.2 11.9
14:30 1017 30.03 846 24.98 17.3 63.2 14 -10.5 13.1
14:35 1017 30.03 846 24.98 16.9 62.5 15 -9.4 15
14:40 1017 30.03 846 24.98 17.2 63 16 -8.8 16.2
14:45 1017 30.03 846 24.98 17.2 62.9 14 -10.1 13.7
14:50 1017 30.03 846 24.98 16.7 62 15 -10.4 13.3
14:55 1017 30.03 846 24.98 17.3 63.1 15 -9.7 14.5
15:00 1017 30.03 846 24.98 17.4 63.4 14 -10 14
15:05 1017 30.03 846 24.98 17.3 63.2 14 -10 13.9
15:10 1016 30 846 24.98 17.6 63.6 15 -9.7 14.6
15:15 1016 30 846 24.98 17.4 63.4 14 -9.9 14.1
15:20 1016 30 846 24.98 17 62.6 16 -8.8 16.1
15:25 1016 30 846 24.98 18.4 65.1 14 -9.8 14.4
15:30 1016 30 846 24.98 18.6 65.4 14 -9.7 14.5
15:35 1016 30 845 24.95 18.4 65.2 13 -10.2 13.7
15:40 1016 30 845 24.95 18 64.4 14 -9.9 14.1
15:45 1016 30 845 24.95 17.9 64.2 13 -10.5 13.1
15:50 1016 30 845 24.95 17.9 64.1 14 -9.7 14.5
15:55 1016 30 845 24.95 18.5 65.2 13 -10 14
16:00 1016 30 845 24.95 17.9 64.2 14 -10.3 13.5
16:05 1016 30 845 24.95 18.3 64.9 13 -10.6 13
16:10 1016 30 845 24.95 18.2 64.8 14 -9.5 14.9
16:15 1016 30 845 24.95 18.4 65.2 14 -9.3 15.2
16:20 1016 30 845 24.95 18.6 65.6 13 -10.3 13.5
16:25 1016 30 845 24.95 18.4 65.1 13 -10.5 13.2
16:30 1016 30 845 24.95 18.5 65.4 13 -10.1 13.9
16:35 1016 30 845 24.95 18.6 65.5 13 -10.2 13.6
16:40 1016 30 845 24.95 18.2 64.7 13 -10.7 12.8
16:45 1016 30 845 24.95 18.4 65.1 12 -10.9 12.3
16:50 1016 30 845 24.95 18.7 65.6 13 -10.2 13.6
16:55 1015 29.97 845 24.95 19 66.2 12 -11 12.3
17:00 1015 29.97 845 24.95 19.1 66.4 13 -10 13.9
17:05 1015 29.97 845 24.95 19 66.1 13 -10.1 13.9
17:10 1015 29.97 844 24.92 18.6 65.4 12 -10.9 12.3
17:15 1015 29.97 844 24.92 17.8 64 12 -11.8 10.7
17:20 1015 29.97 844 24.92 18.3 65 12 -11.3 11.6
17:25 1015 29.97 844 24.92 18.8 65.9 12 -10.8 12.6
17:30 1015 29.97 844 24.92 19.1 66.3 12 -10.9 12.4
17:35 1015 29.97 844 24.92 19.1 66.4 11 -11.7 11
17:40 1015 29.97 844 24.92 17.9 64.3 13 -11 12.1
17:45 1015 29.97 844 24.92 17.9 64.2 13 -11.1 12
17:50 1015 29.97 844 24.92 18.3 65 12 -11.1 12.1
17:55 1015 29.97 844 24.92 18.5 65.4 12 -11.3 11.7
18:00 1015 29.97 844 24.92 18.8 65.8 12 -11.5 11.3
18:05 1015 29.97 844 24.92 18.7 65.7 12 -11.2 11.8
18:10 1015 29.97 844 24.92 18.2 64.8 12 -11.6 11.2
18:15 1015 29.97 844 24.92 18.5 65.3 12 -11.1 12
18:20 1015 29.97 844 24.92 18.6 65.4 13 -10.6 12.9
18:25 1015 29.97 844 24.92 18.5 65.2 12 -11 12.2
18:30 1015 29.97 844 24.92 18.5 65.2 13 -10.5 13.1
18:35 1015 29.97 844 24.92 18.2 64.8 12 -11.1 12
18:40 1015 29.97 844 24.92 18.1 64.7 13 -11.1 12.1
18:45 1015 29.97 844 24.92 18.2 64.8 13 -10.6 13
18:50 1015 29.97 844 24.92 17.8 64 12 -11.5 11.3
18:55 1015 29.97 844 24.92 17.4 63.2 12 -11.9 10.6
19:00 1015 29.97 844 24.92 16.7 62.1 13 -11.8 10.7
19:05 1015 29.97 844 24.92 16.7 62.1 12 -12.3 9.9
19:10 1014 29.94 844 24.92 16.8 62.3 13 -12.1 10.1
19:15 1014 29.94 844 24.92 16.9 62.4 13 -12 10.3
19:20 1014 29.94 844 24.92 17 62.6 13 -11.9 10.5
19:25 1014 29.94 844 24.92 16.7 62.1 13 -11.9 10.6
19:30 1014 29.94 844 24.92 16.4 61.5 13 -11.9 10.6
19:35 1014 29.94 844 24.92 16.2 61.1 14 -11.6 11.1
19:40 1014 29.94 844 24.92 16.1 61 14 -11.8 10.8
19:45 1014 29.94 843 24.89 16 60.9 14 -11.8 10.7
19:50 1014 29.94 843 24.89 16 60.8 14 -11.5 11.4
19:55 1014 29.94 843 24.89 16 60.7 15 -11 12.2
20:00 1014 29.94 843 24.89 15.8 60.5 15 -11.2 11.9
20:05 1014 29.94 843 24.89 15.7 60.3 14 -11.5 11.4
20:10 1014 29.94 843 24.89 15.6 60.2 15 -11.1 12
20:15 1014 29.94 843 24.89 15.6 60.1 15 -10.8 12.6
20:20 1014 29.94 843 24.89 15.6 60.1 16 -10.2 13.6
20:25 1014 29.94 843 24.89 15.6 60.1 16 -10.3 13.4
20:30 1014 29.94 843 24.89 15.6 60 17 -9 15.7
20:35 1014 29.94 843 24.89 15.3 59.6 18 -9.1 15.7
20:40 1014 29.94 843 24.89 14.8 58.7 24 -5.5 22.1
20:45 1014 29.94 843 24.89 14.3 57.8 24 -5.7 21.7
20:50 1014 29.94 843 24.89 13.4 56 27 -5.1 22.8
20:55 1014 29.94 843 24.89 12.6 54.8 29 -4.8 23.4
21:00 1014 29.94 843 24.89 12 53.5 30 -4.9 23.1
21:05 1014 29.94 843 24.89 11.6 53 30 -5.2 22.6
21:10 1014 29.94 843 24.89 11.4 52.5 30 -5.3 22.4
21:15 1014 29.94 844 24.92 11 51.8 33 -4.6 23.8
21:20 1014 29.94 844 24.92 10.5 50.9 34 -4.8 23.4
21:25 1014 29.94 844 24.92 9.9 49.9 32 -6 21.3
21:30 1014 29.94 844 24.92 9.8 49.6 30 -6.8 19.7
21:35 1014 29.94 844 24.92 9.7 49.4 30 -7.1 19.2
21:40 1014 29.94 844 24.92 9.7 49.5 30 -7.1 19.2
21:45 1014 29.94 844 24.92 9.5 49.2 30 -7 19.3
21:50 1014 29.94 844 24.92 9.1 48.3 31 -7.2 19.1
21:55 1014 29.94 844 24.92 8.9 48.1 30 -7.6 18.3
22:00 1014 29.94 844 24.92 9 48.1 31 -7.3 18.8
22:05 1014 29.94 844 24.92 8.8 47.9 31 -7.4 18.7
22:10 1014 29.94 844 24.92 8.6 47.5 31 -7.6 18.3
22:15 1014 29.94 844 24.92 8.5 47.4 31 -7.7 18.1
22:20 1014 29.94 844 24.92 8.5 47.3 31 -7.5 18.5
22:25 1014 29.94 844 24.92 8.3 46.9 31 -7.9 17.8
22:30 1014 29.94 844 24.92 8.2 46.7 32 -7.4 18.6
22:35 1014 29.94 844 24.92 8 46.5 32 -7.7 18.1
22:40 1014 29.94 844 24.92 8.1 46.6 32 -7.8 18
22:45 1014 29.94 844 24.92 8.4 47 31 -7.9 17.8
22:50 1014 29.94 843 24.89 8.5 47.3 31 -7.6 18.2
22:55 1014 29.94 843 24.89 8.4 47 32 -7.6 18.4
23:00 1014 29.94 843 24.89 8.2 46.8 32 -7.5 18.5
23:05 1014 29.94 843 24.89 8.1 46.5 33 -7.4 18.7
23:10 1014 29.94 843 24.89 8 46.4 33 -7.3 18.8
23:15 1014 29.94 843 24.89 7.8 46 33 -7.3 18.8
23:20 1014 29.94 843 24.89 7.6 45.7 34 -7.4 18.7
23:25 1014 29.94 843 24.89 7.5 45.5 34 -7.3 18.8
23:30 1014 29.94 843 24.89 7.6 45.8 33 -7.5 18.4
23:35 1014 29.94 843 24.89 7.6 45.6 33 -7.8 17.9
23:40 1014 29.94 843 24.89 7.5 45.5 32 -7.9 17.7
23:45 1014 29.94 843 24.89 7.5 45.5 33 -7.8 17.9
23:50 1014 29.94 843 24.89 7.5 45.6 32 -8 17.5
23:55 1014 29.94 843 24.89 7.6 45.6 32 -8 17.7
24:00 1014 29.94 843 24.89 7.5 45.6 33 -7.6 18.3